sensor_id;sensor_type;location;lat;lon;timestamp;P1;durP1;ratioP1;P2;durP2;ratioP2
40088;SDS011;25793;55.706;13.186;2022-07-29T00:02:26;123.63;;;117.03;;
40088;SDS011;25793;55.706;13.186;2022-07-29T00:04:53;129.75;;;122.75;;
40088;SDS011;25793;55.706;13.186;2022-07-29T00:07:20;125.50;;;118.63;;
40088;SDS011;25793;55.706;13.186;2022-07-29T00:09:47;130.18;;;123.18;;
40088;SDS011;25793;55.706;13.186;2022-07-29T00:12:17;122.03;;;114.93;;
40088;SDS011;25793;55.706;13.186;2022-07-29T00:14:55;111.87;;;105.70;;
40088;SDS011;25793;55.706;13.186;2022-07-29T00:17:23;110.03;;;104.20;;
40088;SDS011;25793;55.706;13.186;2022-07-29T00:19:50;117.20;;;110.78;;
40088;SDS011;25793;55.706;13.186;2022-07-29T00:22:18;106.43;;;100.53;;
40088;SDS011;25793;55.706;13.186;2022-07-29T00:24:46;119.20;;;112.75;;
40088;SDS011;25793;55.706;13.186;2022-07-29T00:27:15;109.78;;;103.78;;
40088;SDS011;25793;55.706;13.186;2022-07-29T00:29:41;95.20;;;90.05;;
40088;SDS011;25793;55.706;13.186;2022-07-29T00:32:08;88.07;;;83.18;;
40088;SDS011;25793;55.706;13.186;2022-07-29T00:34:35;77.50;;;73.22;;
40088;SDS011;25793;55.706;13.186;2022-07-29T00:37:21;70.80;;;66.90;;
40088;SDS011;25793;55.706;13.186;2022-07-29T00:39:47;61.20;;;57.70;;
40088;SDS011;25793;55.706;13.186;2022-07-29T00:42:14;61.05;;;57.45;;
40088;SDS011;25793;55.706;13.186;2022-07-29T00:44:41;69.65;;;65.50;;
40088;SDS011;25793;55.706;13.186;2022-07-29T00:47:08;65.55;;;61.85;;
40088;SDS011;25793;55.706;13.186;2022-07-29T00:49:37;65.75;;;62.03;;
40088;SDS011;25793;55.706;13.186;2022-07-29T00:52:06;66.38;;;62.65;;
40088;SDS011;25793;55.706;13.186;2022-07-29T00:54:34;67.68;;;63.83;;
40088;SDS011;25793;55.706;13.186;2022-07-29T00:57:09;73.55;;;69.47;;
40088;SDS011;25793;55.706;13.186;2022-07-29T00:59:36;69.88;;;65.88;;
40088;SDS011;25793;55.706;13.186;2022-07-29T01:02:03;73.40;;;69.30;;
40088;SDS011;25793;55.706;13.186;2022-07-29T01:04:30;75.07;;;70.93;;
40088;SDS011;25793;55.706;13.186;2022-07-29T01:06:58;80.53;;;75.93;;
40088;SDS011;25793;55.706;13.186;2022-07-29T01:09:26;80.88;;;76.30;;
40088;SDS011;25793;55.706;13.186;2022-07-29T01:12:11;91.43;;;86.43;;
40088;SDS011;25793;55.706;13.186;2022-07-29T01:14:46;95.30;;;90.07;;
40088;SDS011;25793;55.706;13.186;2022-07-29T01:17:23;105.57;;;99.88;;
40088;SDS011;25793;55.706;13.186;2022-07-29T01:25:05;131.98;;;124.72;;
40088;SDS011;25793;55.706;13.186;2022-07-29T01:30:18;140.18;;;132.68;;
40088;SDS011;25793;55.706;13.186;2022-07-29T01:32:49;144.38;;;136.48;;
40088;SDS011;25793;55.706;13.186;2022-07-29T01:35:24;141.93;;;134.20;;
40088;SDS011;25793;55.706;13.186;2022-07-29T01:38:01;143.63;;;135.83;;
40088;SDS011;25793;55.706;13.186;2022-07-29T01:40:43;143.00;;;135.37;;
40088;SDS011;25793;55.706;13.186;2022-07-29T01:43:17;152.77;;;144.23;;
40088;SDS011;25793;55.706;13.186;2022-07-29T01:45:56;154.85;;;146.40;;
40088;SDS011;25793;55.706;13.186;2022-07-29T01:48:29;161.02;;;152.23;;
40088;SDS011;25793;55.706;13.186;2022-07-29T01:54:02;169.23;;;159.70;;
40088;SDS011;25793;55.706;13.186;2022-07-29T01:56:33;166.70;;;157.23;;
40088;SDS011;25793;55.706;13.186;2022-07-29T01:59:02;168.02;;;158.50;;
40088;SDS011;25793;55.706;13.186;2022-07-29T02:01:32;164.80;;;155.63;;
40088;SDS011;25793;55.706;13.186;2022-07-29T02:04:04;170.00;;;160.30;;
40088;SDS011;25793;55.706;13.186;2022-07-29T02:06:33;166.77;;;157.18;;
40088;SDS011;25793;55.706;13.186;2022-07-29T02:09:03;166.25;;;156.57;;
40088;SDS011;25793;55.706;13.186;2022-07-29T02:11:33;164.23;;;154.93;;
40088;SDS011;25793;55.706;13.186;2022-07-29T02:14:02;170.60;;;160.70;;
40088;SDS011;25793;55.706;13.186;2022-07-29T02:16:31;169.43;;;159.73;;
40088;SDS011;25793;55.706;13.186;2022-07-29T02:19:00;163.88;;;154.52;;
40088;SDS011;25793;55.706;13.186;2022-07-29T02:21:29;164.55;;;155.25;;
40088;SDS011;25793;55.706;13.186;2022-07-29T02:23:59;164.57;;;155.33;;
40088;SDS011;25793;55.706;13.186;2022-07-29T02:26:27;165.07;;;155.85;;
40088;SDS011;25793;55.706;13.186;2022-07-29T02:28:57;166.13;;;156.52;;
40088;SDS011;25793;55.706;13.186;2022-07-29T02:31:26;161.00;;;152.13;;
40088;SDS011;25793;55.706;13.186;2022-07-29T02:33:58;151.15;;;142.95;;
40088;SDS011;25793;55.706;13.186;2022-07-29T02:36:27;146.70;;;138.63;;
40088;SDS011;25793;55.706;13.186;2022-07-29T02:38:55;148.45;;;140.30;;
40088;SDS011;25793;55.706;13.186;2022-07-29T02:41:38;143.43;;;135.52;;
40088;SDS011;25793;55.706;13.186;2022-07-29T02:44:12;147.80;;;139.43;;
40088;SDS011;25793;55.706;13.186;2022-07-29T02:46:47;139.95;;;132.35;;
40088;SDS011;25793;55.706;13.186;2022-07-29T02:57:14;124.00;;;117.40;;
40088;SDS011;25793;55.706;13.186;2022-07-29T02:59:48;115.68;;;109.40;;
40088;SDS011;25793;55.706;13.186;2022-07-29T03:02:17;118.60;;;112.13;;
40088;SDS011;25793;55.706;13.186;2022-07-29T03:04:45;106.88;;;100.97;;
40088;SDS011;25793;55.706;13.186;2022-07-29T03:07:15;103.03;;;97.38;;
40088;SDS011;25793;55.706;13.186;2022-07-29T03:09:45;93.50;;;88.35;;
40088;SDS011;25793;55.706;13.186;2022-07-29T03:12:12;92.35;;;87.07;;
40088;SDS011;25793;55.706;13.186;2022-07-29T03:14:40;84.25;;;79.75;;
40088;SDS011;25793;55.706;13.186;2022-07-29T03:17:08;87.10;;;82.03;;
40088;SDS011;25793;55.706;13.186;2022-07-29T03:19:35;88.15;;;83.45;;
40088;SDS011;25793;55.706;13.186;2022-07-29T03:22:02;84.15;;;79.47;;
40088;SDS011;25793;55.706;13.186;2022-07-29T03:24:33;79.65;;;75.00;;
40088;SDS011;25793;55.706;13.186;2022-07-29T03:27:02;83.38;;;78.80;;
40088;SDS011;25793;55.706;13.186;2022-07-29T03:29:29;80.75;;;76.32;;
40088;SDS011;25793;55.706;13.186;2022-07-29T03:31:59;75.80;;;71.60;;
40088;SDS011;25793;55.706;13.186;2022-07-29T03:34:29;72.38;;;68.45;;
40088;SDS011;25793;55.706;13.186;2022-07-29T03:36:56;70.80;;;66.83;;
40088;SDS011;25793;55.706;13.186;2022-07-29T03:39:24;64.22;;;60.38;;
40088;SDS011;25793;55.706;13.186;2022-07-29T03:41:55;69.20;;;65.15;;
40088;SDS011;25793;55.706;13.186;2022-07-29T03:44:25;66.55;;;62.65;;
40088;SDS011;25793;55.706;13.186;2022-07-29T03:46:54;64.57;;;60.70;;
40088;SDS011;25793;55.706;13.186;2022-07-29T03:49:24;62.40;;;58.78;;
40088;SDS011;25793;55.706;13.186;2022-07-29T03:51:52;58.05;;;54.47;;
40088;SDS011;25793;55.706;13.186;2022-07-29T03:54:19;49.03;;;46.08;;
40088;SDS011;25793;55.706;13.186;2022-07-29T03:56:47;52.10;;;48.60;;
40088;SDS011;25793;55.706;13.186;2022-07-29T03:59:16;49.60;;;46.55;;
40088;SDS011;25793;55.706;13.186;2022-07-29T04:01:45;44.60;;;41.78;;
40088;SDS011;25793;55.706;13.186;2022-07-29T04:04:13;46.88;;;44.20;;
40088;SDS011;25793;55.706;13.186;2022-07-29T04:06:41;39.45;;;37.05;;
40088;SDS011;25793;55.706;13.186;2022-07-29T04:09:09;49.67;;;46.65;;
40088;SDS011;25793;55.706;13.186;2022-07-29T04:11:38;52.95;;;49.85;;
40088;SDS011;25793;55.706;13.186;2022-07-29T04:14:26;55.60;;;52.38;;
40088;SDS011;25793;55.706;13.186;2022-07-29T04:16:53;57.15;;;53.75;;
40088;SDS011;25793;55.706;13.186;2022-07-29T04:19:19;64.93;;;61.05;;
40088;SDS011;25793;55.706;13.186;2022-07-29T04:21:46;77.32;;;72.97;;
40088;SDS011;25793;55.706;13.186;2022-07-29T04:24:13;97.50;;;92.03;;
40088;SDS011;25793;55.706;13.186;2022-07-29T04:26:40;100.60;;;95.10;;
40088;SDS011;25793;55.706;13.186;2022-07-29T04:29:07;108.63;;;102.68;;
40088;SDS011;25793;55.706;13.186;2022-07-29T04:31:33;109.38;;;103.50;;
40088;SDS011;25793;55.706;13.186;2022-07-29T04:34:00;105.63;;;99.72;;
40088;SDS011;25793;55.706;13.186;2022-07-29T04:36:27;114.75;;;108.10;;
40088;SDS011;25793;55.706;13.186;2022-07-29T04:38:55;117.40;;;110.85;;
40088;SDS011;25793;55.706;13.186;2022-07-29T04:41:22;112.30;;;106.10;;
40088;SDS011;25793;55.706;13.186;2022-07-29T04:43:58;124.75;;;117.75;;
40088;SDS011;25793;55.706;13.186;2022-07-29T04:46:27;125.80;;;119.00;;
40088;SDS011;25793;55.706;13.186;2022-07-29T04:48:54;138.52;;;130.73;;
40088;SDS011;25793;55.706;13.186;2022-07-29T04:51:20;154.27;;;145.60;;
40088;SDS011;25793;55.706;13.186;2022-07-29T04:53:47;159.10;;;149.90;;
40088;SDS011;25793;55.706;13.186;2022-07-29T04:56:14;149.98;;;141.48;;
40088;SDS011;25793;55.706;13.186;2022-07-29T04:58:41;158.55;;;149.35;;
40088;SDS011;25793;55.706;13.186;2022-07-29T05:01:07;165.03;;;155.63;;
40088;SDS011;25793;55.706;13.186;2022-07-29T05:03:34;174.40;;;163.95;;
40088;SDS011;25793;55.706;13.186;2022-07-29T05:06:01;184.00;;;173.05;;
40088;SDS011;25793;55.706;13.186;2022-07-29T05:08:27;186.73;;;175.63;;
40088;SDS011;25793;55.706;13.186;2022-07-29T05:10:54;182.88;;;171.88;;
40088;SDS011;25793;55.706;13.186;2022-07-29T05:13:21;195.37;;;183.53;;
40088;SDS011;25793;55.706;13.186;2022-07-29T05:15:47;185.27;;;173.90;;
40088;SDS011;25793;55.706;13.186;2022-07-29T05:18:14;188.43;;;176.77;;
40088;SDS011;25793;55.706;13.186;2022-07-29T05:20:41;191.15;;;179.50;;
40088;SDS011;25793;55.706;13.186;2022-07-29T05:23:08;195.85;;;183.93;;
40088;SDS011;25793;55.706;13.186;2022-07-29T05:25:35;187.00;;;175.90;;
40088;SDS011;25793;55.706;13.186;2022-07-29T05:28:10;179.63;;;168.85;;
40088;SDS011;25793;55.706;13.186;2022-07-29T05:30:37;164.30;;;154.60;;
40088;SDS011;25793;55.706;13.186;2022-07-29T05:33:04;149.45;;;140.98;;
40088;SDS011;25793;55.706;13.186;2022-07-29T05:35:31;149.18;;;140.93;;
40088;SDS011;25793;55.706;13.186;2022-07-29T05:37:58;138.25;;;130.65;;
40088;SDS011;25793;55.706;13.186;2022-07-29T05:40:25;108.72;;;102.78;;
40088;SDS011;25793;55.706;13.186;2022-07-29T05:42:51;104.47;;;98.78;;
40088;SDS011;25793;55.706;13.186;2022-07-29T05:45:18;113.38;;;107.00;;
40088;SDS011;25793;55.706;13.186;2022-07-29T05:47:45;101.30;;;95.63;;
40088;SDS011;25793;55.706;13.186;2022-07-29T05:50:12;103.95;;;98.45;;
40088;SDS011;25793;55.706;13.186;2022-07-29T05:52:38;99.53;;;93.80;;
40088;SDS011;25793;55.706;13.186;2022-07-29T05:55:05;99.25;;;93.90;;
40088;SDS011;25793;55.706;13.186;2022-07-29T05:57:32;98.13;;;92.75;;
40088;SDS011;25793;55.706;13.186;2022-07-29T05:59:59;93.07;;;87.68;;
40088;SDS011;25793;55.706;13.186;2022-07-29T06:02:26;84.47;;;79.65;;
40088;SDS011;25793;55.706;13.186;2022-07-29T06:04:53;97.35;;;91.95;;
40088;SDS011;25793;55.706;13.186;2022-07-29T06:07:20;94.95;;;89.55;;
40088;SDS011;25793;55.706;13.186;2022-07-29T06:09:49;93.15;;;88.07;;
40088;SDS011;25793;55.706;13.186;2022-07-29T06:12:16;89.78;;;84.72;;
40088;SDS011;25793;55.706;13.186;2022-07-29T06:14:43;84.75;;;80.00;;
40088;SDS011;25793;55.706;13.186;2022-07-29T06:17:09;84.80;;;80.05;;
40088;SDS011;25793;55.706;13.186;2022-07-29T06:19:37;80.28;;;75.55;;
40088;SDS011;25793;55.706;13.186;2022-07-29T06:22:07;74.65;;;70.35;;
40088;SDS011;25793;55.706;13.186;2022-07-29T06:24:33;72.60;;;68.30;;
40088;SDS011;25793;55.706;13.186;2022-07-29T06:27:03;66.33;;;62.43;;
40088;SDS011;25793;55.706;13.186;2022-07-29T06:29:29;60.85;;;57.38;;
40088;SDS011;25793;55.706;13.186;2022-07-29T06:31:57;55.93;;;52.63;;
40088;SDS011;25793;55.706;13.186;2022-07-29T06:34:23;48.72;;;45.88;;
40088;SDS011;25793;55.706;13.186;2022-07-29T06:36:51;50.95;;;47.95;;
40088;SDS011;25793;55.706;13.186;2022-07-29T06:39:19;55.33;;;51.90;;
40088;SDS011;25793;55.706;13.186;2022-07-29T06:41:47;47.60;;;44.57;;
40088;SDS011;25793;55.706;13.186;2022-07-29T06:44:15;39.67;;;37.30;;
40088;SDS011;25793;55.706;13.186;2022-07-29T06:46:43;36.92;;;34.63;;
40088;SDS011;25793;55.706;13.186;2022-07-29T06:49:10;40.05;;;37.47;;
40088;SDS011;25793;55.706;13.186;2022-07-29T06:51:38;40.83;;;38.20;;
40088;SDS011;25793;55.706;13.186;2022-07-29T06:54:05;38.83;;;36.22;;
40088;SDS011;25793;55.706;13.186;2022-07-29T06:56:32;38.58;;;35.83;;
40088;SDS011;25793;55.706;13.186;2022-07-29T06:59:05;28.00;;;26.00;;
40088;SDS011;25793;55.706;13.186;2022-07-29T07:01:33;24.27;;;22.45;;
40088;SDS011;25793;55.706;13.186;2022-07-29T07:04:00;14.32;;;13.13;;
40088;SDS011;25793;55.706;13.186;2022-07-29T07:06:26;12.32;;;9.10;;
40088;SDS011;25793;55.706;13.186;2022-07-29T07:08:55;9.35;;;8.40;;
40088;SDS011;25793;55.706;13.186;2022-07-29T07:11:22;11.35;;;8.50;;
40088;SDS011;25793;55.706;13.186;2022-07-29T07:13:49;11.83;;;10.10;;
40088;SDS011;25793;55.706;13.186;2022-07-29T07:16:15;10.73;;;9.48;;
40088;SDS011;25793;55.706;13.186;2022-07-29T07:18:42;12.30;;;10.80;;
40088;SDS011;25793;55.706;13.186;2022-07-29T07:21:11;8.20;;;7.40;;
40088;SDS011;25793;55.706;13.186;2022-07-29T07:23:44;5.83;;;4.00;;
40088;SDS011;25793;55.706;13.186;2022-07-29T07:26:11;7.22;;;4.47;;
40088;SDS011;25793;55.706;13.186;2022-07-29T07:28:38;6.65;;;4.10;;
40088;SDS011;25793;55.706;13.186;2022-07-29T07:31:05;8.80;;;3.60;;
40088;SDS011;25793;55.706;13.186;2022-07-29T07:33:32;6.70;;;3.03;;
40088;SDS011;25793;55.706;13.186;2022-07-29T07:35:59;6.25;;;3.35;;
40088;SDS011;25793;55.706;13.186;2022-07-29T07:38:27;6.85;;;2.78;;
40088;SDS011;25793;55.706;13.186;2022-07-29T07:40:54;6.18;;;2.78;;
40088;SDS011;25793;55.706;13.186;2022-07-29T07:43:21;6.18;;;2.90;;
40088;SDS011;25793;55.706;13.186;2022-07-29T07:45:51;7.95;;;3.10;;
40088;SDS011;25793;55.706;13.186;2022-07-29T07:48:21;4.43;;;2.40;;
40088;SDS011;25793;55.706;13.186;2022-07-29T07:50:51;5.03;;;2.53;;
40088;SDS011;25793;55.706;13.186;2022-07-29T07:53:18;6.53;;;2.60;;
40088;SDS011;25793;55.706;13.186;2022-07-29T07:55:44;5.25;;;2.53;;
40088;SDS011;25793;55.706;13.186;2022-07-29T07:58:31;6.25;;;2.30;;
40088;SDS011;25793;55.706;13.186;2022-07-29T08:00:58;4.95;;;2.50;;
40088;SDS011;25793;55.706;13.186;2022-07-29T08:03:25;7.30;;;2.50;;
40088;SDS011;25793;55.706;13.186;2022-07-29T08:05:52;6.50;;;2.58;;
40088;SDS011;25793;55.706;13.186;2022-07-29T08:08:20;6.22;;;2.53;;
40088;SDS011;25793;55.706;13.186;2022-07-29T08:10:47;6.43;;;2.40;;
40088;SDS011;25793;55.706;13.186;2022-07-29T08:13:20;5.85;;;2.53;;
40088;SDS011;25793;55.706;13.186;2022-07-29T08:15:48;5.93;;;2.45;;
40088;SDS011;25793;55.706;13.186;2022-07-29T08:18:24;7.68;;;2.83;;
40088;SDS011;25793;55.706;13.186;2022-07-29T08:20:51;5.57;;;2.60;;
40088;SDS011;25793;55.706;13.186;2022-07-29T08:23:18;5.93;;;2.67;;
40088;SDS011;25793;55.706;13.186;2022-07-29T08:25:45;5.40;;;2.47;;
40088;SDS011;25793;55.706;13.186;2022-07-29T08:28:16;7.25;;;2.45;;
40088;SDS011;25793;55.706;13.186;2022-07-29T08:30:43;3.90;;;2.33;;
40088;SDS011;25793;55.706;13.186;2022-07-29T08:33:09;4.97;;;2.20;;
40088;SDS011;25793;55.706;13.186;2022-07-29T08:35:36;6.47;;;2.35;;
40088;SDS011;25793;55.706;13.186;2022-07-29T08:38:04;6.38;;;2.50;;
40088;SDS011;25793;55.706;13.186;2022-07-29T08:40:31;5.50;;;2.78;;
40088;SDS011;25793;55.706;13.186;2022-07-29T08:42:59;4.47;;;2.50;;
40088;SDS011;25793;55.706;13.186;2022-07-29T08:45:36;6.28;;;2.67;;
40088;SDS011;25793;55.706;13.186;2022-07-29T08:48:20;6.90;;;3.03;;
40088;SDS011;25793;55.706;13.186;2022-07-29T08:50:54;3.90;;;1.95;;
40088;SDS011;25793;55.706;13.186;2022-07-29T08:53:23;4.47;;;2.28;;
40088;SDS011;25793;55.706;13.186;2022-07-29T08:55:53;6.75;;;2.38;;
40088;SDS011;25793;55.706;13.186;2022-07-29T08:58:21;5.33;;;2.33;;
40088;SDS011;25793;55.706;13.186;2022-07-29T09:00:51;5.20;;;2.13;;
40088;SDS011;25793;55.706;13.186;2022-07-29T09:03:24;4.53;;;2.23;;
40088;SDS011;25793;55.706;13.186;2022-07-29T09:05:54;4.72;;;2.08;;
40088;SDS011;25793;55.706;13.186;2022-07-29T09:08:21;4.00;;;2.05;;
40088;SDS011;25793;55.706;13.186;2022-07-29T09:10:49;5.30;;;2.17;;
40088;SDS011;25793;55.706;13.186;2022-07-29T09:13:16;4.53;;;2.13;;
40088;SDS011;25793;55.706;13.186;2022-07-29T09:15:44;3.50;;;2.10;;
40088;SDS011;25793;55.706;13.186;2022-07-29T09:18:11;6.07;;;2.58;;
40088;SDS011;25793;55.706;13.186;2022-07-29T09:20:56;5.95;;;2.22;;
40088;SDS011;25793;55.706;13.186;2022-07-29T09:23:58;5.60;;;2.33;;
40088;SDS011;25793;55.706;13.186;2022-07-29T09:26:36;6.78;;;2.35;;
40088;SDS011;25793;55.706;13.186;2022-07-29T09:29:12;5.47;;;1.98;;
40088;SDS011;25793;55.706;13.186;2022-07-29T09:31:44;5.60;;;2.10;;
40088;SDS011;25793;55.706;13.186;2022-07-29T09:34:13;4.50;;;2.08;;
40088;SDS011;25793;55.706;13.186;2022-07-29T09:36:43;4.93;;;1.83;;
40088;SDS011;25793;55.706;13.186;2022-07-29T09:39:11;6.05;;;1.85;;
40088;SDS011;25793;55.706;13.186;2022-07-29T09:41:49;4.88;;;2.00;;
40088;SDS011;25793;55.706;13.186;2022-07-29T09:44:21;3.08;;;1.80;;
40088;SDS011;25793;55.706;13.186;2022-07-29T09:47:07;4.35;;;2.10;;
40088;SDS011;25793;55.706;13.186;2022-07-29T09:49:35;5.18;;;2.30;;
40088;SDS011;25793;55.706;13.186;2022-07-29T09:52:15;7.00;;;2.13;;
40088;SDS011;25793;55.706;13.186;2022-07-29T09:54:42;5.90;;;2.40;;
40088;SDS011;25793;55.706;13.186;2022-07-29T09:57:23;4.28;;;1.90;;
40088;SDS011;25793;55.706;13.186;2022-07-29T10:00:00;4.82;;;2.20;;
40088;SDS011;25793;55.706;13.186;2022-07-29T10:02:40;5.15;;;1.95;;
40088;SDS011;25793;55.706;13.186;2022-07-29T10:05:16;5.47;;;2.03;;
40088;SDS011;25793;55.706;13.186;2022-07-29T10:07:47;4.13;;;1.77;;
40088;SDS011;25793;55.706;13.186;2022-07-29T10:12:55;4.93;;;2.10;;
40088;SDS011;25793;55.706;13.186;2022-07-29T10:15:32;4.97;;;2.47;;
40088;SDS011;25793;55.706;13.186;2022-07-29T10:18:03;9.18;;;3.33;;
40088;SDS011;25793;55.706;13.186;2022-07-29T10:20:30;5.28;;;2.17;;
40088;SDS011;25793;55.706;13.186;2022-07-29T10:22:57;3.95;;;1.90;;
40088;SDS011;25793;55.706;13.186;2022-07-29T10:25:24;5.30;;;2.22;;
40088;SDS011;25793;55.706;13.186;2022-07-29T10:27:51;5.03;;;2.00;;
40088;SDS011;25793;55.706;13.186;2022-07-29T10:30:20;4.30;;;1.90;;
40088;SDS011;25793;55.706;13.186;2022-07-29T10:35:44;4.75;;;2.25;;
40088;SDS011;25793;55.706;13.186;2022-07-29T10:44:14;5.18;;;1.90;;
40088;SDS011;25793;55.706;13.186;2022-07-29T10:46:49;5.32;;;1.73;;
40088;SDS011;25793;55.706;13.186;2022-07-29T10:49:18;5.40;;;1.80;;
40088;SDS011;25793;55.706;13.186;2022-07-29T10:51:58;4.30;;;1.80;;
40088;SDS011;25793;55.706;13.186;2022-07-29T10:54:40;5.47;;;2.13;;
40088;SDS011;25793;55.706;13.186;2022-07-29T10:59:40;5.47;;;2.20;;
40088;SDS011;25793;55.706;13.186;2022-07-29T11:05:13;3.00;;;1.85;;
40088;SDS011;25793;55.706;13.186;2022-07-29T11:10:46;5.78;;;2.10;;
40088;SDS011;25793;55.706;13.186;2022-07-29T11:14:00;3.67;;;2.20;;
40088;SDS011;25793;55.706;13.186;2022-07-29T11:16:12;5.93;;;2.30;;
40088;SDS011;25793;55.706;13.186;2022-07-29T11:21:40;4.53;;;1.98;;
40088;SDS011;25793;55.706;13.186;2022-07-29T11:24:21;4.88;;;1.80;;
40088;SDS011;25793;55.706;13.186;2022-07-29T11:27:17;6.32;;;1.80;;
40088;SDS011;25793;55.706;13.186;2022-07-29T11:29:54;3.70;;;1.85;;
40088;SDS011;25793;55.706;13.186;2022-07-29T11:32:24;7.20;;;2.20;;
40088;SDS011;25793;55.706;13.186;2022-07-29T11:38:23;3.80;;;1.63;;
40088;SDS011;25793;55.706;13.186;2022-07-29T11:43:56;2.87;;;1.60;;
40088;SDS011;25793;55.706;13.186;2022-07-29T11:49:13;5.97;;;1.87;;
40088;SDS011;25793;55.706;13.186;2022-07-29T11:51:54;4.60;;;1.60;;
40088;SDS011;25793;55.706;13.186;2022-07-29T11:54:28;5.88;;;1.73;;
40088;SDS011;25793;55.706;13.186;2022-07-29T11:57:06;7.40;;;1.80;;
40088;SDS011;25793;55.706;13.186;2022-07-29T11:59:40;4.30;;;1.70;;
40088;SDS011;25793;55.706;13.186;2022-07-29T12:02:11;3.85;;;1.73;;
40088;SDS011;25793;55.706;13.186;2022-07-29T12:04:58;6.78;;;2.10;;
40088;SDS011;25793;55.706;13.186;2022-07-29T12:07:36;6.95;;;1.80;;
40088;SDS011;25793;55.706;13.186;2022-07-29T12:10:06;4.55;;;1.58;;
40088;SDS011;25793;55.706;13.186;2022-07-29T12:12:44;5.32;;;2.10;;
40088;SDS011;25793;55.706;13.186;2022-07-29T12:15:19;5.43;;;1.83;;
40088;SDS011;25793;55.706;13.186;2022-07-29T12:18:14;3.28;;;1.92;;
40088;SDS011;25793;55.706;13.186;2022-07-29T12:20:44;2.90;;;2.00;;
40088;SDS011;25793;55.706;13.186;2022-07-29T12:23:11;6.40;;;1.90;;
40088;SDS011;25793;55.706;13.186;2022-07-29T12:25:39;4.07;;;2.22;;
40088;SDS011;25793;55.706;13.186;2022-07-29T12:28:08;4.00;;;2.28;;
40088;SDS011;25793;55.706;13.186;2022-07-29T12:30:50;3.97;;;2.38;;
40088;SDS011;25793;55.706;13.186;2022-07-29T12:35:45;5.20;;;2.50;;
40088;SDS011;25793;55.706;13.186;2022-07-29T12:38:32;5.53;;;2.30;;
40088;SDS011;25793;55.706;13.186;2022-07-29T12:41:02;5.30;;;2.13;;
40088;SDS011;25793;55.706;13.186;2022-07-29T12:43:30;4.10;;;1.90;;
40088;SDS011;25793;55.706;13.186;2022-07-29T12:45:57;6.13;;;2.70;;
40088;SDS011;25793;55.706;13.186;2022-07-29T12:48:36;5.27;;;2.50;;
40088;SDS011;25793;55.706;13.186;2022-07-29T12:51:08;6.22;;;2.40;;
40088;SDS011;25793;55.706;13.186;2022-07-29T12:53:37;7.10;;;2.40;;
40088;SDS011;25793;55.706;13.186;2022-07-29T12:56:14;7.68;;;2.20;;
40088;SDS011;25793;55.706;13.186;2022-07-29T12:59:18;6.13;;;2.40;;
40088;SDS011;25793;55.706;13.186;2022-07-29T13:01:47;6.47;;;2.42;;
40088;SDS011;25793;55.706;13.186;2022-07-29T13:04:34;5.03;;;2.25;;
40088;SDS011;25793;55.706;13.186;2022-07-29T13:07:05;8.20;;;1.90;;
40088;SDS011;25793;55.706;13.186;2022-07-29T13:09:37;4.75;;;1.70;;
40088;SDS011;25793;55.706;13.186;2022-07-29T13:12:08;6.90;;;1.90;;
40088;SDS011;25793;55.706;13.186;2022-07-29T13:14:37;5.43;;;1.98;;
40088;SDS011;25793;55.706;13.186;2022-07-29T13:19:50;7.25;;;2.17;;
40088;SDS011;25793;55.706;13.186;2022-07-29T13:22:20;5.65;;;2.28;;
40088;SDS011;25793;55.706;13.186;2022-07-29T13:24:58;4.25;;;1.90;;
40088;SDS011;25793;55.706;13.186;2022-07-29T13:27:31;6.30;;;2.38;;
40088;SDS011;25793;55.706;13.186;2022-07-29T13:30:01;4.88;;;2.08;;
40088;SDS011;25793;55.706;13.186;2022-07-29T13:32:30;4.47;;;1.83;;
40088;SDS011;25793;55.706;13.186;2022-07-29T13:34:58;5.20;;;1.80;;
40088;SDS011;25793;55.706;13.186;2022-07-29T13:37:31;6.68;;;2.08;;
40088;SDS011;25793;55.706;13.186;2022-07-29T13:40:00;5.00;;;2.00;;
40088;SDS011;25793;55.706;13.186;2022-07-29T13:42:29;4.60;;;2.30;;
40088;SDS011;25793;55.706;13.186;2022-07-29T13:44:57;4.68;;;2.03;;
40088;SDS011;25793;55.706;13.186;2022-07-29T13:47:23;6.65;;;2.30;;
40088;SDS011;25793;55.706;13.186;2022-07-29T13:49:58;9.63;;;2.23;;
40088;SDS011;25793;55.706;13.186;2022-07-29T13:52:31;4.93;;;2.30;;
40088;SDS011;25793;55.706;13.186;2022-07-29T13:54:58;5.82;;;2.22;;
40088;SDS011;25793;55.706;13.186;2022-07-29T13:57:25;5.53;;;2.20;;
40088;SDS011;25793;55.706;13.186;2022-07-29T13:59:51;5.72;;;2.17;;
40088;SDS011;25793;55.706;13.186;2022-07-29T14:02:20;4.43;;;2.25;;
40088;SDS011;25793;55.706;13.186;2022-07-29T14:04:51;4.13;;;2.20;;
40088;SDS011;25793;55.706;13.186;2022-07-29T14:07:18;4.38;;;2.10;;
40088;SDS011;25793;55.706;13.186;2022-07-29T14:09:45;5.13;;;2.10;;
40088;SDS011;25793;55.706;13.186;2022-07-29T14:12:12;6.10;;;2.35;;
40088;SDS011;25793;55.706;13.186;2022-07-29T14:14:39;3.47;;;2.05;;
40088;SDS011;25793;55.706;13.186;2022-07-29T14:17:06;9.03;;;2.40;;
40088;SDS011;25793;55.706;13.186;2022-07-29T14:19:33;5.75;;;2.25;;
40088;SDS011;25793;55.706;13.186;2022-07-29T14:22:06;4.18;;;2.05;;
40088;SDS011;25793;55.706;13.186;2022-07-29T14:24:36;5.77;;;2.13;;
40088;SDS011;25793;55.706;13.186;2022-07-29T14:27:04;4.55;;;2.20;;
40088;SDS011;25793;55.706;13.186;2022-07-29T14:29:31;5.87;;;2.10;;
40088;SDS011;25793;55.706;13.186;2022-07-29T14:32:06;7.47;;;2.30;;
40088;SDS011;25793;55.706;13.186;2022-07-29T14:34:36;4.22;;;2.10;;
40088;SDS011;25793;55.706;13.186;2022-07-29T14:37:04;4.05;;;2.22;;
40088;SDS011;25793;55.706;13.186;2022-07-29T14:39:32;6.53;;;2.20;;
40088;SDS011;25793;55.706;13.186;2022-07-29T14:42:08;6.18;;;2.03;;
40088;SDS011;25793;55.706;13.186;2022-07-29T14:44:36;7.22;;;2.50;;
40088;SDS011;25793;55.706;13.186;2022-07-29T14:47:03;7.63;;;2.15;;
40088;SDS011;25793;55.706;13.186;2022-07-29T14:49:33;3.75;;;1.90;;
40088;SDS011;25793;55.706;13.186;2022-07-29T14:52:00;4.70;;;2.17;;
40088;SDS011;25793;55.706;13.186;2022-07-29T14:54:27;5.82;;;2.10;;
40088;SDS011;25793;55.706;13.186;2022-07-29T14:56:54;6.57;;;2.30;;
40088;SDS011;25793;55.706;13.186;2022-07-29T14:59:23;7.72;;;2.50;;
40088;SDS011;25793;55.706;13.186;2022-07-29T15:01:50;6.53;;;2.50;;
40088;SDS011;25793;55.706;13.186;2022-07-29T15:04:17;5.43;;;2.60;;
40088;SDS011;25793;55.706;13.186;2022-07-29T15:06:44;5.50;;;3.13;;
40088;SDS011;25793;55.706;13.186;2022-07-29T15:09:10;5.47;;;2.70;;
40088;SDS011;25793;55.706;13.186;2022-07-29T15:11:38;4.20;;;2.22;;
40088;SDS011;25793;55.706;13.186;2022-07-29T15:14:05;8.07;;;2.70;;
40088;SDS011;25793;55.706;13.186;2022-07-29T15:16:32;5.30;;;2.70;;
40088;SDS011;25793;55.706;13.186;2022-07-29T15:19:02;8.20;;;2.80;;
40088;SDS011;25793;55.706;13.186;2022-07-29T15:21:28;6.03;;;2.20;;
40088;SDS011;25793;55.706;13.186;2022-07-29T15:23:55;4.90;;;2.45;;
40088;SDS011;25793;55.706;13.186;2022-07-29T15:26:22;9.13;;;2.90;;
40088;SDS011;25793;55.706;13.186;2022-07-29T15:28:49;5.45;;;2.22;;
40088;SDS011;25793;55.706;13.186;2022-07-29T15:31:15;8.05;;;2.95;;